Terminal Aerodrome Forecast
Issued by NWS

Home | Current Version | Previous Version | Text Only | Print | Product List | Glossary On
Versions: 1 2 3 4 5 6 7 8 9 10 11 12 13 14 15 16 17 18 19 20 21 22 23 24 25 26 27 28 29 30 31 32 33 34 35 36
000
FTUS43 KGRB 302331
TAFATW
TAF
KATW 302331Z 3100/3124 04017G25KT P6SM -RASN OVC004
     FM310300 04015G25KT P6SM OVC006
     FM310900 03014KT P6SM OVC008
     FM311400 02013G25KT P6SM OVC012
     FM311800 03012G20KT P6SM BKN028=

USA.gov is the U.S. government's official web portal to all federal, state and local government web resources and services.